createdAt,value
2018-12-30T00:00:52.765Z,24.50
2018-12-30T00:03:22.101Z,22.63
2018-12-30T00:05:51.787Z,21.70
2018-12-30T00:08:21.556Z,18.90
2018-12-30T00:10:50.984Z,19.13
2018-12-30T00:13:20.124Z,19.60
2018-12-30T00:15:49.544Z,18.53
2018-12-30T00:18:18.946Z,18.30
2018-12-30T00:20:48.027Z,17.80
2018-12-30T00:23:17.548Z,18.33
2018-12-30T00:25:46.639Z,19.43
2018-12-30T00:28:15.724Z,19.37
2018-12-30T00:30:44.900Z,19.47
2018-12-30T00:33:14.047Z,18.60
2018-12-30T00:35:43.228Z,20.77
2018-12-30T00:38:12.367Z,19.80
2018-12-30T00:40:41.467Z,19.53
2018-12-30T00:43:10.528Z,18.50
2018-12-30T00:45:39.681Z,20.97
2018-12-30T00:48:09.417Z,21.37
2018-12-30T00:50:39.034Z,17.77
2018-12-30T00:53:08.093Z,19.97
2018-12-30T00:55:37.327Z,20.97
2018-12-30T00:58:06.541Z,21.47
2018-12-30T01:00:35.776Z,21.90
2018-12-30T01:03:05.383Z,23.27
2018-12-30T01:05:34.812Z,23.00
2018-12-30T01:08:04.035Z,20.93
2018-12-30T01:10:33.188Z,21.87
2018-12-30T01:13:02.421Z,22.40
2018-12-30T01:15:31.651Z,22.63
2018-12-30T01:18:00.800Z,22.33
2018-12-30T01:20:29.924Z,22.20
2018-12-30T01:22:59.016Z,23.20
2018-12-30T01:25:29.822Z,22.50
2018-12-30T01:28:01.972Z,21.00
2018-12-30T01:30:31.423Z,20.03
2018-12-30T01:33:00.508Z,22.40
2018-12-30T01:35:29.758Z,23.70
2018-12-30T01:37:59.066Z,22.33
2018-12-30T01:40:28.559Z,22.53
2018-12-30T01:42:57.884Z,21.00
2018-12-30T01:45:27.276Z,23.90
2018-12-30T01:47:56.683Z,21.60
2018-12-30T01:50:25.736Z,21.67
2018-12-30T01:52:54.920Z,20.67
2018-12-30T01:55:24.161Z,22.80
2018-12-30T01:57:53.522Z,23.57
2018-12-30T02:00:22.792Z,22.90
2018-12-30T02:02:51.876Z,22.83
2018-12-30T02:05:21.021Z,21.83
2018-12-30T02:07:50.549Z,20.20
2018-12-30T02:10:19.628Z,20.00
2018-12-30T02:12:48.720Z,20.30
2018-12-30T02:15:17.802Z,20.13
2018-12-30T02:17:47.172Z,20.80
2018-12-30T02:20:17.053Z,21.00
2018-12-30T02:22:46.712Z,20.77
2018-12-30T02:25:16.027Z,21.70
2018-12-30T02:27:45.123Z,20.33
2018-12-30T02:30:15.270Z,20.47
2018-12-30T02:32:44.704Z,20.07
2018-12-30T02:35:14.161Z,19.80
2018-12-30T02:37:43.500Z,19.43
2018-12-30T02:40:12.784Z,20.47
2018-12-30T02:42:41.900Z,19.00
2018-12-30T02:45:10.968Z,20.30
2018-12-30T02:47:40.051Z,17.80
2018-12-30T02:50:09.705Z,19.77
2018-12-30T02:52:39.141Z,19.97
2018-12-30T02:55:17.451Z,19.20
2018-12-30T02:57:46.632Z,19.73
2018-12-30T03:00:16.025Z,19.73
2018-12-30T03:02:45.191Z,19.17
2018-12-30T03:05:14.333Z,17.57
2018-12-30T03:07:43.423Z,16.43
2018-12-30T03:10:12.828Z,17.60
2018-12-30T03:12:41.981Z,16.73
2018-12-30T03:15:11.385Z,15.10
2018-12-30T03:17:40.758Z,13.83
2018-12-30T03:20:09.823Z,15.90
2018-12-30T03:22:38.952Z,13.80
2018-12-30T03:25:08.087Z,15.97
2018-12-30T03:27:37.191Z,12.60
2018-12-30T03:30:06.949Z,13.67
2018-12-30T03:32:36.146Z,12.93
2018-12-30T03:35:05.283Z,13.90
2018-12-30T03:37:34.371Z,12.20
2018-12-30T03:40:03.632Z,11.83
2018-12-30T03:42:32.714Z,11.40
2018-12-30T03:45:01.820Z,12.97
2018-12-30T03:47:32.053Z,11.00
2018-12-30T03:50:01.193Z,12.20
2018-12-30T03:52:30.267Z,12.07
2018-12-30T03:54:59.420Z,12.43
2018-12-30T03:57:28.820Z,7.97
2018-12-30T03:59:57.908Z,12.27
2018-12-30T04:02:27.244Z,11.27
2018-12-30T04:04:56.683Z,11.87
2018-12-30T04:07:25.781Z,11.47
2018-12-30T04:09:54.854Z,12.33
2018-12-30T04:12:24.182Z,11.90
2018-12-30T04:14:53.269Z,12.07
2018-12-30T04:17:22.441Z,10.90
2018-12-30T04:19:51.516Z,13.10
2018-12-30T04:22:20.593Z,11.37
2018-12-30T04:24:49.678Z,11.27
2018-12-30T04:27:18.741Z,11.30
2018-12-30T04:29:47.908Z,12.03
2018-12-30T04:32:16.976Z,10.47
2018-12-30T04:34:46.339Z,10.63
2018-12-30T04:37:15.408Z,11.33
2018-12-30T04:39:44.607Z,9.93
2018-12-30T04:42:13.692Z,11.50
2018-12-30T04:44:42.801Z,10.40
2018-12-30T04:47:12.204Z,9.20
2018-12-30T04:49:41.298Z,8.83
2018-12-30T04:52:10.708Z,9.17
2018-12-30T04:54:39.806Z,8.90
2018-12-30T04:57:09.136Z,7.10
2018-12-30T04:59:38.284Z,5.93
2018-12-30T05:02:07.419Z,6.70
2018-12-30T05:04:36.508Z,5.60
2018-12-30T05:07:05.579Z,5.83
2018-12-30T05:09:34.731Z,5.97
2018-12-30T05:12:03.886Z,6.53
2018-12-30T05:14:33.042Z,6.20
2018-12-30T05:17:02.115Z,6.43
2018-12-30T05:19:31.494Z,5.70
2018-12-30T05:22:00.801Z,6.47
2018-12-30T05:24:30.146Z,5.27
2018-12-30T05:26:59.289Z,5.33
2018-12-30T05:29:28.369Z,5.27
2018-12-30T05:31:57.447Z,6.50
2018-12-30T05:34:26.857Z,5.50
2018-12-30T05:36:55.990Z,5.80
2018-12-30T05:39:25.669Z,9.60
2018-12-30T05:41:54.804Z,14.73
2018-12-30T05:44:23.953Z,17.80
2018-12-30T05:46:53.031Z,12.77
2018-12-30T05:49:22.449Z,13.70
2018-12-30T05:51:51.994Z,12.80
2018-12-30T05:54:21.358Z,15.70
2018-12-30T05:56:50.518Z,17.50
2018-12-30T05:59:19.931Z,19.73
2018-12-30T06:01:49.010Z,18.17
2018-12-30T06:04:18.170Z,18.87
2018-12-30T06:06:47.311Z,16.13
2018-12-30T06:09:16.467Z,17.13
2018-12-30T06:11:45.618Z,17.03
2018-12-30T06:14:14.783Z,13.67
2018-12-30T06:16:43.935Z,14.83
2018-12-30T06:19:13.037Z,15.83
2018-12-30T06:21:42.101Z,15.43
2018-12-30T06:24:11.199Z,15.30
2018-12-30T06:26:40.602Z,16.93
2018-12-30T06:29:09.751Z,16.00
2018-12-30T06:31:38.838Z,17.20
2018-12-30T06:34:07.920Z,14.27
2018-12-30T06:36:37.019Z,15.80
2018-12-30T06:39:06.732Z,15.77
2018-12-30T06:41:35.847Z,13.97
2018-12-30T06:44:04.997Z,12.33
2018-12-30T06:46:34.162Z,10.83
2018-12-30T06:49:03.572Z,10.30
2018-12-30T06:51:32.986Z,9.77
2018-12-30T06:54:02.138Z,12.70
2018-12-30T06:56:31.220Z,10.40
2018-12-30T06:59:00.376Z,6.80
2018-12-30T07:01:29.788Z,7.13
2018-12-30T07:03:58.864Z,6.27
2018-12-30T07:06:27.936Z,7.37
2018-12-30T07:08:57.181Z,7.00
2018-12-30T07:11:26.291Z,6.90
2018-12-30T07:13:55.446Z,7.60
2018-12-30T07:16:24.559Z,6.43
2018-12-30T07:18:53.644Z,6.27
2018-12-30T07:21:22.807Z,6.97
2018-12-30T07:23:52.143Z,6.70
2018-12-30T07:26:21.563Z,6.33
2018-12-30T07:28:50.668Z,7.07
2018-12-30T07:31:20.080Z,7.20
2018-12-30T07:33:49.139Z,6.27
2018-12-30T07:36:18.464Z,6.90
2018-12-30T07:38:47.536Z,6.13
2018-12-30T07:41:16.645Z,6.67
2018-12-30T07:43:46.024Z,6.87
2018-12-30T07:46:15.159Z,6.20
2018-12-30T07:48:44.291Z,5.77
2018-12-30T07:51:14.954Z,6.27
2018-12-30T07:53:44.116Z,5.97
2018-12-30T07:56:13.262Z,7.17
2018-12-30T07:58:42.409Z,6.37
2018-12-30T08:01:11.757Z,7.03
2018-12-30T08:03:40.822Z,7.03
2018-12-30T08:06:09.933Z,7.37
2018-12-30T08:08:38.994Z,6.67
2018-12-30T08:11:08.334Z,6.87
2018-12-30T08:13:37.387Z,8.50
2018-12-30T08:16:06.473Z,7.67
2018-12-30T08:18:40.900Z,7.30
2018-12-30T08:21:10.244Z,7.00
2018-12-30T08:23:39.318Z,7.50
2018-12-30T08:26:08.420Z,7.63
2018-12-30T08:28:37.562Z,7.53
2018-12-30T08:31:06.739Z,8.20
2018-12-30T08:33:35.891Z,7.63
2018-12-30T08:36:05.084Z,7.20
2018-12-30T08:38:34.239Z,7.87
2018-12-30T08:41:03.487Z,9.13
2018-12-30T08:43:32.633Z,7.87
2018-12-30T08:46:01.787Z,9.67
2018-12-30T08:48:30.928Z,8.40
2018-12-30T08:51:00.118Z,7.67
2018-12-30T08:53:29.604Z,7.73
2018-12-30T08:55:58.932Z,8.07
2018-12-30T08:58:27.997Z,8.67
2018-12-30T09:00:57.153Z,7.87
2018-12-30T09:03:26.516Z,8.00
2018-12-30T09:05:55.584Z,8.10
2018-12-30T09:08:24.748Z,8.03
2018-12-30T09:10:55.329Z,7.77
2018-12-30T09:13:24.777Z,7.83
2018-12-30T09:15:54.091Z,7.90
2018-12-30T09:18:23.179Z,9.23
2018-12-30T09:20:52.322Z,9.70
2018-12-30T09:23:21.409Z,8.70
2018-12-30T09:25:50.468Z,8.87
2018-12-30T09:28:19.660Z,9.37
2018-12-30T09:30:49.001Z,8.70
2018-12-30T09:33:18.161Z,8.60
2018-12-30T09:35:47.295Z,8.80
2018-12-30T09:38:16.372Z,8.90
2018-12-30T09:40:45.504Z,8.43
2018-12-30T09:43:14.791Z,7.97
2018-12-30T09:45:43.930Z,8.03
2018-12-30T09:48:13.106Z,8.07
2018-12-30T09:50:42.247Z,8.50
2018-12-30T09:53:11.472Z,8.10
2018-12-30T09:55:40.955Z,7.50
2018-12-30T09:58:10.345Z,9.70
2018-12-30T10:00:39.492Z,11.93
2018-12-30T10:03:08.593Z,12.30
2018-12-30T10:05:37.991Z,12.60
2018-12-30T10:08:07.120Z,9.53
2018-12-30T10:10:36.219Z,9.20
2018-12-30T10:13:05.388Z,9.70
2018-12-30T10:15:35.384Z,9.37
2018-12-30T10:18:04.542Z,9.50
2018-12-30T10:20:33.697Z,9.20
2018-12-30T10:23:02.834Z,8.90
2018-12-30T10:25:32.240Z,10.23
2018-12-30T10:28:01.401Z,10.90
2018-12-30T10:30:30.531Z,9.30
2018-12-30T10:32:59.631Z,9.00
2018-12-30T10:35:29.048Z,10.20
2018-12-30T10:37:58.447Z,8.60
2018-12-30T10:40:27.834Z,9.80
2018-12-30T10:42:56.920Z,8.60
2018-12-30T10:45:26.078Z,9.50
2018-12-30T10:47:55.166Z,9.40
2018-12-30T10:50:24.302Z,8.87
2018-12-30T10:52:53.390Z,8.90
2018-12-30T10:55:22.551Z,9.37
2018-12-30T10:57:51.891Z,9.60
2018-12-30T11:00:21.107Z,8.70
2018-12-30T11:02:50.242Z,8.60
2018-12-30T11:05:19.567Z,9.53
2018-12-30T11:07:48.664Z,9.50
2018-12-30T11:10:17.795Z,9.73
2018-12-30T11:12:46.979Z,8.90
2018-12-30T11:15:16.257Z,8.90
2018-12-30T11:17:45.403Z,8.40
2018-12-30T11:20:14.483Z,8.43
2018-12-30T11:22:43.891Z,9.27
2018-12-30T11:25:13.279Z,9.40
2018-12-30T11:27:42.722Z,9.17
2018-12-30T11:30:11.932Z,29.30
2018-12-30T11:32:41.132Z,10.70
2018-12-30T11:35:10.270Z,9.07
2018-12-30T11:37:39.508Z,9.97
2018-12-30T11:40:08.651Z,8.73
2018-12-30T11:42:37.828Z,9.73
2018-12-30T11:45:07.000Z,27.57
2018-12-30T11:47:36.140Z,9.43
2018-12-30T11:50:05.457Z,8.80
2018-12-30T11:52:34.564Z,8.73
2018-12-30T11:55:04.132Z,8.63
2018-12-30T11:57:33.507Z,9.07
2018-12-30T12:00:02.747Z,24.30
2018-12-30T12:02:31.898Z,9.83
2018-12-30T12:05:01.003Z,8.60
2018-12-30T12:07:30.135Z,9.47
2018-12-30T12:09:59.223Z,9.37
2018-12-30T12:12:28.668Z,10.87
2018-12-30T12:14:57.851Z,9.13
2018-12-30T12:17:26.923Z,9.50
2018-12-30T12:19:56.031Z,9.40
2018-12-30T12:22:25.371Z,14.80
2018-12-30T12:24:54.498Z,12.10
2018-12-30T12:27:23.878Z,10.60
2018-12-30T12:29:53.063Z,9.90
2018-12-30T12:32:24.573Z,9.50
2018-12-30T12:34:53.979Z,9.10
2018-12-30T12:37:23.222Z,9.73
2018-12-30T12:39:52.360Z,14.07
2018-12-30T12:42:21.570Z,9.97
2018-12-30T12:44:50.684Z,9.37
2018-12-30T12:47:20.000Z,9.93
2018-12-30T12:49:49.108Z,11.63
2018-12-30T12:52:18.547Z,9.40
2018-12-30T12:54:47.936Z,10.73
2018-12-30T12:57:17.004Z,9.27
2018-12-30T12:59:46.612Z,8.93
2018-12-30T13:02:15.692Z,8.73
2018-12-30T13:04:45.084Z,10.47
2018-12-30T13:07:14.269Z,10.50
2018-12-30T13:09:43.657Z,9.40
2018-12-30T13:12:12.828Z,10.17
2018-12-30T13:14:42.215Z,9.67
2018-12-30T13:17:11.351Z,9.10
2018-12-30T13:19:40.909Z,9.40
2018-12-30T13:22:10.323Z,14.80
2018-12-30T13:24:40.146Z,14.23
2018-12-30T13:27:09.588Z,10.60
2018-12-30T13:29:38.792Z,8.33
2018-12-30T13:32:07.847Z,9.33
2018-12-30T13:34:36.991Z,10.23
2018-12-30T13:37:06.237Z,11.37
2018-12-30T13:39:35.449Z,9.30
2018-12-30T13:42:04.557Z,9.30
2018-12-30T13:44:33.667Z,10.30
2018-12-30T13:47:04.772Z,8.57
2018-12-30T13:49:33.910Z,9.00
2018-12-30T13:52:03.025Z,8.17
2018-12-30T13:54:32.180Z,12.87
2018-12-30T13:57:01.242Z,8.20
2018-12-30T13:59:30.591Z,8.70
2018-12-30T14:01:59.747Z,7.97
2018-12-30T14:04:29.307Z,9.20
2018-12-30T14:06:59.762Z,7.97
2018-12-30T14:09:32.406Z,10.60
2018-12-30T14:12:01.571Z,12.50
2018-12-30T14:14:31.043Z,10.20
2018-12-30T14:17:00.503Z,8.90
2018-12-30T14:19:32.303Z,8.87
2018-12-30T14:22:02.103Z,9.87
2018-12-30T14:24:31.194Z,8.70
2018-12-30T14:27:02.268Z,9.97
2018-12-30T14:29:31.556Z,8.33
2018-12-30T14:32:00.957Z,8.60
2018-12-30T14:34:30.104Z,11.57
2018-12-30T14:36:59.376Z,9.80
2018-12-30T14:39:29.625Z,9.40
2018-12-30T14:41:58.744Z,9.90
2018-12-30T14:44:29.631Z,10.33
2018-12-30T14:46:58.799Z,10.60
2018-12-30T14:49:28.340Z,9.73
2018-12-30T14:52:03.226Z,10.13
2018-12-30T14:54:32.679Z,10.10
2018-12-30T14:57:02.047Z,10.90
2018-12-30T14:59:31.106Z,9.40
2018-12-30T15:02:00.472Z,11.80
2018-12-30T15:04:29.540Z,12.00
2018-12-30T15:06:58.687Z,10.53
2018-12-30T15:09:35.416Z,10.50
2018-12-30T15:11:58.983Z,9.17
2018-12-30T15:14:28.463Z,10.13
2018-12-30T15:16:59.457Z,10.90
2018-12-30T15:19:28.839Z,8.70
2018-12-30T15:21:57.994Z,8.90
2018-12-30T15:24:27.467Z,8.60
2018-12-30T15:26:56.619Z,9.70
2018-12-30T15:29:25.796Z,10.00
2018-12-30T15:31:56.831Z,10.00
2018-12-30T15:34:26.170Z,9.50
2018-12-30T15:36:55.706Z,9.97
2018-12-30T15:39:24.815Z,10.13
2018-12-30T15:41:54.215Z,10.07
2018-12-30T15:44:24.271Z,9.70
2018-12-30T15:46:53.353Z,10.47
2018-12-30T15:49:22.487Z,9.87
2018-12-30T15:51:51.594Z,10.20
2018-12-30T15:54:20.652Z,12.90
2018-12-30T15:56:49.804Z,65.93
2018-12-30T15:59:18.907Z,54.23
2018-12-30T16:01:48.172Z,14.30
2018-12-30T16:04:17.622Z,12.00
2018-12-30T16:06:46.688Z,12.53
2018-12-30T16:09:15.767Z,12.90
2018-12-30T16:11:45.182Z,13.23
2018-12-30T16:14:14.364Z,14.00
2018-12-30T16:16:43.455Z,16.23
2018-12-30T16:19:12.569Z,13.97
2018-12-30T16:21:41.736Z,14.40
2018-12-30T16:24:10.805Z,12.70
2018-12-30T16:26:39.947Z,11.47
2018-12-30T16:29:10.999Z,15.90
2018-12-30T16:31:41.966Z,12.30
2018-12-30T16:34:11.148Z,13.10
2018-12-30T16:36:40.606Z,15.10
2018-12-30T16:39:09.672Z,11.47
2018-12-30T16:41:38.795Z,11.73
2018-12-30T16:44:07.999Z,13.40
2018-12-30T16:46:37.119Z,11.13
2018-12-30T16:49:06.322Z,13.77
2018-12-30T16:51:37.168Z,11.03
2018-12-30T16:54:06.236Z,14.10
2018-12-30T16:56:35.443Z,13.47
2018-12-30T16:59:04.602Z,14.00
2018-12-30T17:01:52.987Z,13.53
2018-12-30T17:04:25.075Z,12.60
2018-12-30T17:06:54.322Z,12.20
2018-12-30T17:09:23.687Z,14.97
2018-12-30T17:11:52.775Z,13.30
2018-12-30T17:14:41.231Z,13.80
2018-12-30T17:17:12.467Z,11.30
2018-12-30T17:19:41.623Z,11.10
2018-12-30T17:22:11.074Z,11.33
2018-12-30T17:24:40.464Z,12.27
2018-12-30T17:27:09.523Z,12.60
2018-12-30T17:29:39.109Z,10.90
2018-12-30T17:32:08.184Z,10.77
2018-12-30T17:34:37.250Z,11.70
2018-12-30T17:37:06.459Z,11.97
2018-12-30T17:39:35.532Z,11.43
2018-12-30T17:42:04.752Z,11.57
2018-12-30T17:44:34.230Z,10.80
2018-12-30T17:47:03.570Z,11.40
2018-12-30T17:49:32.782Z,11.43
2018-12-30T17:52:01.847Z,12.73
2018-12-30T17:54:52.038Z,15.70
2018-12-30T17:57:21.187Z,14.40
2018-12-30T17:59:53.430Z,16.50
2018-12-30T18:02:22.561Z,13.20
2018-12-30T18:04:51.915Z,12.00
2018-12-30T18:07:21.652Z,12.43
2018-12-30T18:09:51.053Z,11.83
2018-12-30T18:12:20.123Z,13.47
2018-12-30T18:14:49.320Z,12.70
2018-12-30T18:17:18.636Z,11.83
2018-12-30T18:19:47.743Z,12.77
2018-12-30T18:22:17.147Z,11.90
2018-12-30T18:24:46.310Z,11.60
2018-12-30T18:27:16.600Z,11.63
2018-12-30T18:29:45.703Z,12.63
2018-12-30T18:32:14.891Z,12.60
2018-12-30T18:34:44.331Z,12.80
2018-12-30T18:37:13.515Z,12.30
2018-12-30T18:39:42.940Z,12.10
2018-12-30T18:42:12.118Z,11.80
2018-12-30T18:44:41.892Z,13.00
2018-12-30T18:47:11.148Z,11.50
2018-12-30T18:49:40.350Z,13.47
2018-12-30T18:52:09.556Z,13.03
2018-12-30T18:54:38.704Z,15.30
2018-12-30T18:57:08.231Z,12.57
2018-12-30T18:59:37.303Z,11.90
2018-12-30T19:02:06.375Z,12.87
2018-12-30T19:04:35.840Z,13.93
2018-12-30T19:07:04.999Z,13.50
2018-12-30T19:09:37.619Z,11.60
2018-12-30T19:12:06.756Z,11.47
2018-12-30T19:14:36.003Z,11.93
2018-12-30T19:17:05.559Z,13.40
2018-12-30T19:19:34.895Z,14.43
2018-12-30T19:22:04.047Z,15.53
2018-12-30T19:24:33.424Z,14.27
2018-12-30T19:27:02.570Z,14.33
2018-12-30T19:29:31.639Z,15.03
2018-12-30T19:32:00.763Z,14.03
2018-12-30T19:34:30.206Z,13.27
2018-12-30T19:36:59.652Z,12.87
2018-12-30T19:39:28.797Z,15.23
2018-12-30T19:41:57.921Z,13.60
2018-12-30T19:44:27.091Z,17.80
2018-12-30T19:46:56.618Z,13.70
2018-12-30T19:49:25.931Z,12.97
2018-12-30T19:51:55.096Z,13.50
2018-12-30T19:54:24.813Z,13.07
2018-12-30T19:56:55.214Z,13.13
2018-12-30T19:59:24.641Z,12.60
2018-12-30T20:01:53.791Z,12.93
2018-12-30T20:04:23.153Z,12.10
2018-12-30T20:06:52.807Z,11.63
2018-12-30T20:09:21.921Z,11.57
2018-12-30T20:12:16.792Z,12.87
2018-12-30T20:14:46.374Z,12.30
2018-12-30T20:17:15.507Z,12.43
2018-12-30T20:19:44.694Z,12.50
2018-12-30T20:22:14.572Z,13.37
2018-12-30T20:24:43.971Z,13.00
2018-12-30T20:27:13.115Z,12.30
2018-12-30T20:29:42.211Z,13.13
2018-12-30T20:32:11.288Z,13.73
2018-12-30T20:34:40.462Z,12.50
2018-12-30T20:37:11.285Z,14.37
2018-12-30T20:39:46.184Z,13.67
2018-12-30T20:42:15.259Z,14.07
2018-12-30T20:44:44.380Z,13.07
2018-12-30T20:47:13.924Z,14.13
2018-12-30T20:49:43.327Z,13.90
2018-12-30T20:52:12.848Z,14.70
2018-12-30T20:54:42.214Z,13.60
2018-12-30T20:57:11.266Z,13.23
2018-12-30T20:59:40.631Z,14.77
2018-12-30T21:02:10.035Z,13.80
2018-12-30T21:04:39.394Z,12.40
2018-12-30T21:07:10.038Z,13.33
2018-12-30T21:09:39.353Z,11.93
2018-12-30T21:12:08.834Z,14.00
2018-12-30T21:14:37.971Z,12.57
2018-12-30T21:17:07.130Z,13.97
2018-12-30T21:19:36.271Z,13.10
2018-12-30T21:22:05.422Z,11.10
2018-12-30T21:24:34.536Z,11.60
2018-12-30T21:27:03.755Z,10.33
2018-12-30T21:29:36.823Z,10.87
2018-12-30T21:32:06.432Z,11.27
2018-12-30T21:34:35.568Z,9.73
2018-12-30T21:37:04.768Z,12.50
2018-12-30T21:39:33.885Z,12.67
2018-12-30T21:42:03.416Z,11.83
2018-12-30T21:44:32.522Z,12.20
2018-12-30T21:47:02.161Z,12.33
2018-12-30T21:49:31.343Z,13.20
2018-12-30T21:52:00.668Z,13.40
2018-12-30T21:54:29.900Z,13.10
2018-12-30T21:56:59.038Z,14.63
2018-12-30T21:59:28.176Z,14.13
2018-12-30T22:01:57.305Z,14.40
2018-12-30T22:04:26.651Z,13.10
2018-12-30T22:06:58.196Z,14.30
2018-12-30T22:09:27.708Z,14.10
2018-12-30T22:11:56.775Z,14.43
2018-12-30T22:14:25.934Z,14.23
2018-12-30T22:16:55.047Z,12.97
2018-12-30T22:19:24.182Z,15.03
2018-12-30T22:21:53.877Z,13.87
2018-12-30T22:24:23.065Z,13.60
2018-12-30T22:26:54.005Z,14.13
2018-12-30T22:29:23.393Z,14.47
2018-12-30T22:31:52.572Z,13.57
2018-12-30T22:34:21.683Z,13.27
2018-12-30T22:36:50.880Z,15.60
2018-12-30T22:39:21.486Z,13.83
2018-12-30T22:41:51.362Z,13.10
2018-12-30T22:44:20.737Z,13.70
2018-12-30T22:46:50.069Z,13.37
2018-12-30T22:49:19.236Z,13.67
2018-12-30T22:51:49.874Z,14.93
2018-12-30T22:54:19.181Z,11.87
2018-12-30T22:56:48.327Z,12.97
2018-12-30T22:59:17.488Z,13.67
2018-12-30T23:01:47.575Z,14.07
2018-12-30T23:04:16.762Z,13.37
2018-12-30T23:06:45.923Z,14.43
2018-12-30T23:09:15.003Z,14.60
2018-12-30T23:11:44.343Z,13.40
2018-12-30T23:14:13.561Z,12.97
2018-12-30T23:16:42.710Z,11.57
2018-12-30T23:19:11.797Z,12.47
2018-12-30T23:21:41.138Z,12.30
2018-12-30T23:24:10.339Z,12.93
2018-12-30T23:26:39.412Z,12.43
2018-12-30T23:29:46.911Z,11.90
2018-12-30T23:32:17.760Z,12.60
2018-12-30T23:34:46.851Z,12.13
2018-12-30T23:37:16.026Z,13.30
2018-12-30T23:39:45.231Z,12.90
2018-12-30T23:42:16.096Z,12.33
2018-12-30T23:44:45.271Z,12.77
2018-12-30T23:47:14.832Z,11.70
2018-12-30T23:49:44.148Z,12.07
2018-12-30T23:52:15.617Z,12.07
2018-12-30T23:54:44.712Z,11.27
2018-12-30T23:57:14.049Z,11.40
2018-12-30T23:59:43.408Z,11.60
